This is the latest recevied weather packets stored in our database for station/object OK3MS-5. If no packets are shown the sender has not sent any weather packets the latest 10 day(s).
| Time | Temp. | Humidity | Pressure | Rain* | Wind** | Luminosity | Snow |
|---|---|---|---|---|---|---|---|
| 1787503803 | 21.67° C | 46% | 1019 hPa | 0 mm | - | 56 W/m² | - |
| 1787503506 | 21.67° C | 47% | 1019.1 hPa | 0 mm | - | 68 W/m² | - |
| 1787503204 | 21.11° C | 48% | 1019.2 hPa | 0 mm | - | 80 W/m² | - |
| 1787502905 | 21.67° C | 49% | 1018.9 hPa | 0 mm | - | 91 W/m² | - |
| 1787502605 | 21.67° C | 46% | 1018.9 hPa | 0 mm | - | 103 W/m² | - |
| 1787502303 | 21.67° C | 45% | 1018.9 hPa | 0 mm | - | 114 W/m² | - |
| 1787502004 | 22.22° C | 45% | 1019 hPa | 0 mm | - | 126 W/m² | - |
| 1787501702 | 21.67° C | 45% | 1019 hPa | 0 mm | - | 138 W/m² | - |
| 1787501402 | 22.22° C | 46% | 1018.9 hPa | 0 mm | - | 150 W/m² | - |
| 1787501104 | 22.78° C | 44% | 1018.7 hPa | 0 mm | - | 163 W/m² | - |
| 1787500806 | 22.22° C | 44% | 1018.9 hPa | 0 mm | - | 175 W/m² | - |
| 1787500505 | 22.22° C | 45% | 1019 hPa | 0 mm | - | 186 W/m² | - |
| 1787500203 | 21.67° C | 46% | 1019 hPa | 0 mm | - | 200 W/m² | - |
| 1787499905 | 21.67° C | 45% | 1018.9 hPa | 0 mm | - | 213 W/m² | - |
| 1787499604 | 22.22° C | 45% | 1018.8 hPa | 0 mm | - | 227 W/m² | - |
| 1787499303 | 22.78° C | 43% | 1018.7 hPa | 0 mm | - | 241 W/m² | - |
| 1787499004 | 23.33° C | 42% | 1018.6 hPa | 0 mm | - | 257 W/m² | - |
| 1787498704 | 22.22° C | 45% | 1018.8 hPa | 0 mm | - | 275 W/m² | - |
| 1787498404 | 22.22° C | 45% | 1018.9 hPa | 0 mm | - | 290 W/m² | - |
| 1787498104 | 22.22° C | 43% | 1018.9 hPa | 0 mm | - | 310 W/m² | - |
| 1787497804 | 22.78° C | 45% | 1018.9 hPa | 0 mm | - | 340 W/m² | - |
| 1787497502 | 22.22° C | 46% | 1019 hPa | 0 mm | - | 368 W/m² | - |
| 1787497203 | 22.22° C | 45% | 1018.9 hPa | 0 mm | - | 365 W/m² | - |
| 1787496904 | 22.22° C | 44% | 1019 hPa | 0 mm | - | 403 W/m² | - |
| 1787496603 | 21.67° C | 47% | 1019.2 hPa | 0 mm | - | 399 W/m² | - |
* Rain latest hour (hover to see other rain measurements)
** Current wind speed in m/s (hover to see current wind gust speed)